createdAt,value
2022-10-09T00:01:09.526Z,1.83
2022-10-09T00:03:38.071Z,2.28
2022-10-09T00:06:06.182Z,1.92
2022-10-09T00:08:34.757Z,1.98
2022-10-09T00:11:05.993Z,2.58
2022-10-09T00:13:32.733Z,2.00
2022-10-09T00:16:07.327Z,2.10
2022-10-09T00:18:34.448Z,1.90
2022-10-09T00:21:01.294Z,3.00
2022-10-09T00:23:27.992Z,1.90
2022-10-09T00:25:59.815Z,1.70
2022-10-09T00:28:28.584Z,2.00
2022-10-09T00:30:55.790Z,2.35
2022-10-09T00:33:22.709Z,2.22
2022-10-09T00:35:49.443Z,1.85
2022-10-09T00:38:16.426Z,2.17
2022-10-09T00:40:43.709Z,1.98
2022-10-09T00:43:50.740Z,1.85
2022-10-09T00:46:41.941Z,2.15
2022-10-09T00:49:25.502Z,2.15
2022-10-09T00:51:53.078Z,2.15
2022-10-09T00:54:22.800Z,2.40
2022-10-09T00:56:50.446Z,2.60
2022-10-09T00:59:18.156Z,2.30
2022-10-09T01:01:44.901Z,2.75
2022-10-09T01:04:11.855Z,2.65
2022-10-09T01:06:56.502Z,1.95
2022-10-09T01:09:51.839Z,2.22
2022-10-09T01:12:28.346Z,2.35
2022-10-09T01:15:10.305Z,2.08
2022-10-09T01:17:46.937Z,2.40
2022-10-09T01:20:42.110Z,2.00
2022-10-09T01:23:14.220Z,2.38
2022-10-09T01:25:58.002Z,2.13
2022-10-09T01:28:29.918Z,1.80
2022-10-09T01:31:04.123Z,2.08
2022-10-09T01:33:32.311Z,1.90
2022-10-09T01:36:00.611Z,1.83
2022-10-09T01:38:29.392Z,1.70
2022-10-09T01:40:57.223Z,2.03
2022-10-09T01:43:23.850Z,2.10
2022-10-09T01:45:50.488Z,1.98
2022-10-09T01:48:23.077Z,2.10
2022-10-09T01:50:57.861Z,2.22
2022-10-09T01:53:25.921Z,2.45
2022-10-09T01:56:03.871Z,2.38
2022-10-09T01:58:35.462Z,2.42
2022-10-09T02:01:26.957Z,2.50
2022-10-09T02:03:56.076Z,2.08
2022-10-09T02:06:23.583Z,2.20
2022-10-09T02:08:52.320Z,2.53
2022-10-09T02:11:19.102Z,2.47
2022-10-09T02:13:48.059Z,2.28
2022-10-09T02:16:22.303Z,1.77
2022-10-09T02:18:57.275Z,2.20
2022-10-09T02:21:29.136Z,2.03
2022-10-09T02:23:57.787Z,2.42
2022-10-09T02:26:25.409Z,2.05
2022-10-09T02:28:52.307Z,1.92
2022-10-09T02:31:25.581Z,2.20
2022-10-09T02:33:57.210Z,2.20
2022-10-09T02:36:24.566Z,2.20
2022-10-09T02:38:51.392Z,1.98
2022-10-09T02:41:18.402Z,2.20
2022-10-09T02:43:44.991Z,2.42
2022-10-09T02:46:11.750Z,2.03
2022-10-09T02:48:38.440Z,2.05
2022-10-09T02:51:05.174Z,1.80
2022-10-09T02:53:31.786Z,1.92
2022-10-09T02:55:58.529Z,1.90
2022-10-09T02:58:25.234Z,1.90
2022-10-09T03:00:53.761Z,2.00
2022-10-09T03:03:20.773Z,1.88
2022-10-09T03:05:47.859Z,2.67
2022-10-09T03:08:14.819Z,2.25
2022-10-09T03:10:41.631Z,2.40
2022-10-09T03:13:09.102Z,2.55
2022-10-09T03:15:37.060Z,2.05
2022-10-09T03:18:04.260Z,2.45
2022-10-09T03:20:30.893Z,2.28
2022-10-09T03:22:57.887Z,2.15
2022-10-09T03:25:25.071Z,2.25
2022-10-09T03:27:51.789Z,2.25
2022-10-09T03:30:18.423Z,2.38
2022-10-09T03:32:45.076Z,2.92
2022-10-09T03:35:11.733Z,2.42
2022-10-09T03:37:38.361Z,2.58
2022-10-09T03:40:05.608Z,2.35
2022-10-09T03:42:32.278Z,2.42
2022-10-09T03:45:03.013Z,2.67
2022-10-09T03:47:30.200Z,2.97
2022-10-09T03:49:56.993Z,2.55
2022-10-09T03:52:23.764Z,2.95
2022-10-09T03:54:50.448Z,2.75
2022-10-09T03:57:17.104Z,2.42
2022-10-09T03:59:43.723Z,2.50
2022-10-09T04:02:10.353Z,2.80
2022-10-09T04:04:36.986Z,2.63
2022-10-09T04:07:03.624Z,2.55
2022-10-09T04:09:30.262Z,2.17
2022-10-09T04:11:56.875Z,2.45
2022-10-09T04:14:23.519Z,2.35
2022-10-09T04:16:50.131Z,2.70
2022-10-09T04:19:16.807Z,2.33
2022-10-09T04:21:43.434Z,2.65
2022-10-09T04:24:10.139Z,2.75
2022-10-09T04:26:36.740Z,2.67
2022-10-09T04:29:03.478Z,2.90
2022-10-09T04:31:30.233Z,2.78
2022-10-09T04:33:56.951Z,2.85
2022-10-09T04:36:23.937Z,2.33
2022-10-09T04:38:52.445Z,2.60
2022-10-09T04:41:19.157Z,2.53
2022-10-09T04:43:45.924Z,2.78
2022-10-09T04:46:14.434Z,2.15
2022-10-09T04:48:43.784Z,2.60
2022-10-09T04:51:10.990Z,2.80
2022-10-09T04:53:38.503Z,2.83
2022-10-09T04:56:17.300Z,2.80
2022-10-09T04:58:44.653Z,2.53
2022-10-09T05:01:18.434Z,2.63
2022-10-09T05:03:45.406Z,2.28
2022-10-09T05:06:13.220Z,2.70
2022-10-09T05:08:40.406Z,2.47
2022-10-09T05:11:09.400Z,2.40
2022-10-09T05:13:39.622Z,2.80
2022-10-09T05:16:12.773Z,2.42
2022-10-09T05:18:44.249Z,2.65
2022-10-09T05:21:11.043Z,2.70
2022-10-09T05:23:37.689Z,2.78
2022-10-09T05:26:06.796Z,3.03
2022-10-09T05:28:34.592Z,3.75
2022-10-09T05:31:03.956Z,3.60
2022-10-09T05:33:31.190Z,3.45
2022-10-09T05:36:00.341Z,3.22
2022-10-09T05:38:28.111Z,3.45
2022-10-09T05:41:00.139Z,3.10
2022-10-09T05:43:38.121Z,2.83
2022-10-09T05:46:12.169Z,2.90
2022-10-09T05:48:40.915Z,3.38
2022-10-09T05:51:19.813Z,3.05
2022-10-09T05:53:47.454Z,3.00
2022-10-09T05:56:19.859Z,3.42
2022-10-09T05:58:52.324Z,3.50
2022-10-09T06:01:20.116Z,3.60
2022-10-09T06:03:52.161Z,3.60
2022-10-09T06:06:20.438Z,3.50
2022-10-09T06:08:47.453Z,3.85
2022-10-09T06:11:22.774Z,3.22
2022-10-09T06:13:49.852Z,3.45
2022-10-09T06:16:17.924Z,3.70
2022-10-09T06:18:49.224Z,3.15
2022-10-09T06:21:16.311Z,3.95
2022-10-09T06:23:43.053Z,3.58
2022-10-09T06:26:12.241Z,3.70
2022-10-09T06:28:39.965Z,3.53
2022-10-09T06:31:09.156Z,3.90
2022-10-09T06:33:37.556Z,3.85
2022-10-09T06:36:10.700Z,4.15
2022-10-09T06:38:38.233Z,3.92
2022-10-09T06:41:10.110Z,3.78
2022-10-09T06:43:37.401Z,4.13
2022-10-09T06:46:07.253Z,4.40
2022-10-09T06:48:35.290Z,4.13
2022-10-09T06:51:06.164Z,3.33
2022-10-09T06:53:41.240Z,5.20
2022-10-09T06:56:08.646Z,4.30
2022-10-09T06:58:35.794Z,3.92
2022-10-09T07:03:46.168Z,4.53
2022-10-09T07:06:19.002Z,3.70
2022-10-09T07:08:51.353Z,4.07
2022-10-09T07:11:30.478Z,4.07
2022-10-09T07:13:59.601Z,3.95
2022-10-09T07:16:31.500Z,5.30
2022-10-09T07:19:00.045Z,3.50
2022-10-09T07:21:26.987Z,3.65
2022-10-09T07:23:56.518Z,3.00
2022-10-09T07:26:26.100Z,3.38
2022-10-09T07:28:53.350Z,3.22
2022-10-09T07:31:20.448Z,3.08
2022-10-09T07:33:48.524Z,3.05
2022-10-09T07:36:15.371Z,2.78
2022-10-09T07:38:42.542Z,3.08
2022-10-09T07:41:11.561Z,2.63
2022-10-09T07:43:40.155Z,2.83
2022-10-09T07:46:11.022Z,2.95
2022-10-09T07:48:38.377Z,2.80
2022-10-09T07:51:15.071Z,3.33
2022-10-09T07:53:41.883Z,2.40
2022-10-09T07:56:16.119Z,3.30
2022-10-09T07:58:43.915Z,2.72
2022-10-09T08:01:10.614Z,3.08
2022-10-09T08:03:38.451Z,2.90
2022-10-09T08:06:05.586Z,2.45
2022-10-09T08:08:32.439Z,3.38
2022-10-09T08:10:59.156Z,2.90
2022-10-09T08:13:26.096Z,2.92
2022-10-09T08:15:52.793Z,2.90
2022-10-09T08:18:19.434Z,3.10
2022-10-09T08:20:59.554Z,2.70
2022-10-09T08:23:26.685Z,2.90
2022-10-09T08:25:53.399Z,3.25
2022-10-09T08:28:20.395Z,2.90
2022-10-09T08:30:47.112Z,2.70
2022-10-09T08:33:13.851Z,3.00
2022-10-09T08:35:40.515Z,2.80
2022-10-09T08:38:07.182Z,2.63
2022-10-09T08:40:43.087Z,2.50
2022-10-09T08:43:15.530Z,3.03
2022-10-09T08:45:43.614Z,3.30
2022-10-09T08:48:20.189Z,2.60
2022-10-09T08:50:50.472Z,2.45
2022-10-09T08:53:28.966Z,2.90
2022-10-09T08:55:57.843Z,2.53
2022-10-09T08:58:36.330Z,2.53
2022-10-09T09:01:29.961Z,2.53
2022-10-09T09:04:18.374Z,2.45
2022-10-09T09:06:55.647Z,2.85
2022-10-09T09:09:31.830Z,2.67
2022-10-09T09:12:27.112Z,2.35
2022-10-09T09:15:17.295Z,2.53
2022-10-09T09:17:43.920Z,2.00
2022-10-09T09:20:30.822Z,2.30
2022-10-09T09:23:01.092Z,2.00
2022-10-09T09:25:41.102Z,2.35
2022-10-09T09:28:26.329Z,2.70
2022-10-09T09:31:06.620Z,1.98
2022-10-09T09:33:44.397Z,1.90
2022-10-09T09:36:14.397Z,2.17
2022-10-09T09:39:02.681Z,1.85
2022-10-09T09:41:28.986Z,1.50
2022-10-09T09:43:55.670Z,1.92
2022-10-09T09:46:27.123Z,1.75
2022-10-09T09:48:54.296Z,2.10
2022-10-09T09:51:31.989Z,2.20
2022-10-09T09:54:04.041Z,1.95
2022-10-09T09:57:06.762Z,1.92
2022-10-09T09:59:35.740Z,2.22
2022-10-09T10:02:11.214Z,2.47
2022-10-09T10:04:43.133Z,2.10
2022-10-09T10:07:09.937Z,2.45
2022-10-09T10:09:36.574Z,2.13
2022-10-09T10:12:05.835Z,2.35
2022-10-09T10:14:33.141Z,2.28
2022-10-09T10:17:01.243Z,2.05
2022-10-09T10:19:30.562Z,1.63
2022-10-09T10:22:21.314Z,1.80
2022-10-09T10:24:50.055Z,1.55
2022-10-09T10:27:28.417Z,2.00
2022-10-09T10:30:01.919Z,1.70
2022-10-09T10:32:38.107Z,1.42
2022-10-09T10:35:17.105Z,1.95
2022-10-09T10:38:00.766Z,2.15
2022-10-09T10:40:36.397Z,1.90
2022-10-09T10:43:38.154Z,2.45
2022-10-09T10:46:32.250Z,2.10
2022-10-09T10:49:00.266Z,2.03
2022-10-09T10:51:41.894Z,1.70
2022-10-09T10:54:23.637Z,1.60
2022-10-09T10:57:01.670Z,1.55
2022-10-09T10:59:58.176Z,1.77
2022-10-09T11:02:46.335Z,1.65
2022-10-09T11:05:27.583Z,1.95
2022-10-09T11:08:09.051Z,2.22
2022-10-09T11:10:41.477Z,2.30
2022-10-09T11:13:24.177Z,1.95
2022-10-09T11:16:04.488Z,1.80
2022-10-09T11:19:02.376Z,1.58
2022-10-09T11:21:44.356Z,1.70
2022-10-09T11:24:32.489Z,1.98
2022-10-09T11:27:11.081Z,1.60
2022-10-09T11:29:41.699Z,1.30
2022-10-09T11:32:21.607Z,1.50
2022-10-09T11:35:13.093Z,1.80
2022-10-09T11:37:43.472Z,1.70
2022-10-09T11:40:26.658Z,1.33
2022-10-09T11:43:14.431Z,1.73
2022-10-09T11:45:51.097Z,1.92
2022-10-09T11:48:43.520Z,1.42
2022-10-09T11:51:31.531Z,1.80
2022-10-09T11:53:59.127Z,1.02
2022-10-09T11:56:28.816Z,1.70
2022-10-09T11:58:58.543Z,1.90
2022-10-09T12:01:33.113Z,1.85
2022-10-09T12:04:50.041Z,1.17
2022-10-09T12:07:35.939Z,1.10
2022-10-09T12:10:07.255Z,1.20
2022-10-09T12:12:34.942Z,1.17
2022-10-09T12:15:30.802Z,1.33
2022-10-09T12:17:57.465Z,1.10
2022-10-09T12:20:25.791Z,1.17
2022-10-09T12:23:25.242Z,1.33
2022-10-09T12:25:49.453Z,1.05
2022-10-09T12:28:45.586Z,1.10
2022-10-09T12:31:30.871Z,0.75
2022-10-09T12:34:18.472Z,1.10
2022-10-09T12:36:45.121Z,1.00
2022-10-09T12:39:20.579Z,1.42
2022-10-09T12:41:50.648Z,0.93
2022-10-09T12:44:28.784Z,1.00
2022-10-09T12:46:59.756Z,1.10
2022-10-09T12:49:26.350Z,1.00
2022-10-09T12:51:56.358Z,0.90
2022-10-09T12:54:25.112Z,0.80
2022-10-09T12:56:56.825Z,1.08
2022-10-09T12:59:26.044Z,0.80
2022-10-09T13:01:57.758Z,0.95
2022-10-09T13:04:32.904Z,0.98
2022-10-09T13:07:02.665Z,0.80
2022-10-09T13:09:36.890Z,0.90
2022-10-09T13:12:13.678Z,0.93
2022-10-09T13:14:45.597Z,1.02
2022-10-09T13:20:16.663Z,0.73
2022-10-09T13:22:58.081Z,0.90
2022-10-09T13:25:34.020Z,0.93
2022-10-09T13:28:01.900Z,0.90
2022-10-09T13:30:28.586Z,0.77
2022-10-09T13:32:55.517Z,1.10
2022-10-09T13:35:22.192Z,1.00
2022-10-09T13:37:49.146Z,0.85
2022-10-09T13:40:20.375Z,0.98
2022-10-09T13:42:53.077Z,1.17
2022-10-09T13:45:19.784Z,0.93
2022-10-09T13:47:46.707Z,1.10
2022-10-09T13:50:14.742Z,1.05
2022-10-09T13:52:41.375Z,1.00
2022-10-09T13:55:09.028Z,0.70
2022-10-09T13:57:35.666Z,0.80
2022-10-09T14:00:02.889Z,0.77
2022-10-09T14:02:38.934Z,0.82
2022-10-09T14:05:06.089Z,0.82
2022-10-09T14:07:32.691Z,0.82
2022-10-09T14:09:59.367Z,0.77
2022-10-09T14:12:26.101Z,1.08
2022-10-09T14:14:53.859Z,0.80
2022-10-09T14:17:20.525Z,0.90
2022-10-09T14:19:47.111Z,0.80
2022-10-09T14:22:14.659Z,0.95
2022-10-09T14:24:41.279Z,0.70
2022-10-09T14:27:07.961Z,1.08
2022-10-09T14:29:34.613Z,0.95
2022-10-09T14:32:01.276Z,0.75
2022-10-09T14:34:28.038Z,0.88
2022-10-09T14:36:54.841Z,0.90
2022-10-09T14:39:21.516Z,1.00
2022-10-09T14:41:48.200Z,1.08
2022-10-09T14:44:14.862Z,0.90
2022-10-09T14:46:41.500Z,1.00
2022-10-09T14:49:08.626Z,0.90
2022-10-09T14:51:37.393Z,0.80
2022-10-09T14:54:05.465Z,0.90
2022-10-09T14:56:32.259Z,1.00
2022-10-09T14:59:02.340Z,0.70
2022-10-09T15:01:29.678Z,1.05
2022-10-09T15:03:56.892Z,0.60
2022-10-09T15:06:24.125Z,0.82
2022-10-09T15:08:54.116Z,1.10
2022-10-09T15:11:20.743Z,0.80
2022-10-09T15:13:47.353Z,0.73
2022-10-09T15:16:16.056Z,1.20
2022-10-09T15:18:43.630Z,0.65
2022-10-09T15:21:18.504Z,1.00
2022-10-09T15:23:46.463Z,0.80
2022-10-09T15:26:14.234Z,0.90
2022-10-09T15:28:43.378Z,0.90
2022-10-09T15:31:17.219Z,1.40
2022-10-09T15:33:43.828Z,1.02
2022-10-09T15:36:10.518Z,0.63
2022-10-09T15:38:37.166Z,1.13
2022-10-09T15:41:03.781Z,1.20
2022-10-09T15:43:30.514Z,0.88
2022-10-09T15:46:03.650Z,1.05
2022-10-09T15:48:31.183Z,0.73
2022-10-09T15:50:57.855Z,1.42
2022-10-09T15:53:25.010Z,0.95
2022-10-09T15:55:52.908Z,0.90
2022-10-09T15:58:20.322Z,0.90
2022-10-09T16:00:48.927Z,0.90
2022-10-09T16:03:17.807Z,0.90
2022-10-09T16:05:48.704Z,0.98
2022-10-09T16:08:16.627Z,1.15
2022-10-09T16:10:49.369Z,1.17
2022-10-09T16:13:16.575Z,2.13
2022-10-09T16:15:44.418Z,2.50
2022-10-09T16:18:11.689Z,2.35
2022-10-09T16:20:40.271Z,1.60
2022-10-09T16:23:08.480Z,1.38
2022-10-09T16:25:36.257Z,1.80
2022-10-09T16:28:03.684Z,2.50
2022-10-09T16:30:30.550Z,2.75
2022-10-09T16:32:57.213Z,2.00
2022-10-09T16:35:24.270Z,2.53
2022-10-09T16:37:53.935Z,2.25
2022-10-09T16:40:25.370Z,2.03
2022-10-09T16:43:02.718Z,1.67
2022-10-09T16:45:29.420Z,1.80
2022-10-09T16:47:59.680Z,1.90
2022-10-09T16:50:26.574Z,1.42
2022-10-09T16:52:53.489Z,1.67
2022-10-09T16:55:20.173Z,1.17
2022-10-09T16:57:46.851Z,1.55
2022-10-09T17:00:18.134Z,1.88
2022-10-09T17:02:45.745Z,1.42
2022-10-09T17:05:13.310Z,6.35
2022-10-09T17:07:39.932Z,8.88
2022-10-09T17:10:07.049Z,3.65
2022-10-09T17:12:33.639Z,2.42
2022-10-09T17:15:00.318Z,1.73
2022-10-09T17:17:26.957Z,1.45
2022-10-09T17:19:53.667Z,1.45
2022-10-09T17:22:20.319Z,1.40
2022-10-09T17:24:47.070Z,1.48
2022-10-09T17:27:13.744Z,1.75
2022-10-09T17:29:40.352Z,2.17
2022-10-09T17:32:09.161Z,3.55
2022-10-09T17:34:35.869Z,2.10
2022-10-09T17:37:02.537Z,2.20
2022-10-09T17:39:31.757Z,1.73
2022-10-09T17:41:58.448Z,1.55
2022-10-09T17:44:27.112Z,1.45
2022-10-09T17:46:53.973Z,1.33
2022-10-09T17:49:20.655Z,1.25
2022-10-09T17:51:48.127Z,1.13
2022-10-09T17:54:17.123Z,1.00
2022-10-09T17:56:44.328Z,0.98
2022-10-09T17:59:11.366Z,1.02
2022-10-09T18:01:38.585Z,1.10
2022-10-09T18:04:05.469Z,0.90
2022-10-09T18:06:34.117Z,0.90
2022-10-09T18:09:01.962Z,1.15
2022-10-09T18:11:29.917Z,1.20
2022-10-09T18:13:56.695Z,1.23
2022-10-09T18:16:35.772Z,1.25
2022-10-09T18:19:11.167Z,1.10
2022-10-09T18:21:40.170Z,0.98
2022-10-09T18:24:07.043Z,1.08
2022-10-09T18:26:34.171Z,0.80
2022-10-09T18:29:01.798Z,1.20
2022-10-09T18:31:28.898Z,1.30
2022-10-09T18:33:57.620Z,1.50
2022-10-09T18:36:30.923Z,1.30
2022-10-09T18:39:04.534Z,1.30
2022-10-09T18:41:31.563Z,1.33
2022-10-09T18:44:01.666Z,1.33
2022-10-09T18:46:34.011Z,1.35
2022-10-09T18:49:02.528Z,1.52
2022-10-09T18:51:30.917Z,1.30
2022-10-09T18:54:01.471Z,1.45
2022-10-09T18:56:32.281Z,1.30
2022-10-09T18:59:00.672Z,1.27
2022-10-09T19:01:27.383Z,1.20
2022-10-09T19:03:54.091Z,1.10
2022-10-09T19:06:20.885Z,1.10
2022-10-09T19:08:47.520Z,1.10
2022-10-09T19:11:15.530Z,1.13
2022-10-09T19:13:43.316Z,1.20
2022-10-09T19:16:10.942Z,1.23
2022-10-09T19:18:38.040Z,1.27
2022-10-09T19:21:05.554Z,1.42
2022-10-09T19:23:32.247Z,1.05
2022-10-09T19:25:59.769Z,1.42
2022-10-09T19:28:36.938Z,1.38
2022-10-09T19:31:08.309Z,1.13
2022-10-09T19:33:38.161Z,1.05
2022-10-09T19:36:06.470Z,1.10
2022-10-09T19:38:33.395Z,1.20
2022-10-09T19:41:05.690Z,1.25
2022-10-09T19:43:33.199Z,1.00
2022-10-09T19:46:11.966Z,1.23
2022-10-09T19:48:38.563Z,1.15
2022-10-09T19:51:13.592Z,1.38
2022-10-09T19:53:42.218Z,1.20
2022-10-09T19:56:18.664Z,1.30
2022-10-09T19:58:47.141Z,1.10
2022-10-09T20:01:16.098Z,1.10
2022-10-09T20:03:43.135Z,1.35
2022-10-09T20:06:10.793Z,1.27
2022-10-09T20:08:39.091Z,1.30
2022-10-09T20:11:07.319Z,1.58
2022-10-09T20:13:36.162Z,1.77
2022-10-09T20:16:05.306Z,1.40
2022-10-09T20:18:32.272Z,1.60
2022-10-09T20:20:59.032Z,1.95
2022-10-09T20:23:26.108Z,1.85
2022-10-09T20:26:07.929Z,1.40
2022-10-09T20:28:35.930Z,1.13
2022-10-09T20:31:06.426Z,1.38
2022-10-09T20:33:34.094Z,1.17
2022-10-09T20:36:00.721Z,2.05
2022-10-09T20:38:27.719Z,1.52
2022-10-09T20:40:54.551Z,1.30
2022-10-09T20:43:21.180Z,1.40
2022-10-09T20:45:47.810Z,1.20
2022-10-09T20:48:14.572Z,1.02
2022-10-09T20:50:42.026Z,1.42
2022-10-09T20:53:12.280Z,1.30
2022-10-09T20:55:38.945Z,1.55
2022-10-09T20:58:05.594Z,1.38
2022-10-09T21:00:32.197Z,1.40
2022-10-09T21:02:59.010Z,1.92
2022-10-09T21:05:25.669Z,1.70
2022-10-09T21:07:52.290Z,3.47
2022-10-09T21:10:18.919Z,1.02
2022-10-09T21:12:45.543Z,1.65
2022-10-09T21:15:12.196Z,1.35
2022-10-09T21:17:38.800Z,1.67
2022-10-09T21:20:05.776Z,1.30
2022-10-09T21:22:32.406Z,1.42
2022-10-09T21:24:59.090Z,1.80
2022-10-09T21:27:25.683Z,1.40
2022-10-09T21:29:52.325Z,1.25
2022-10-09T21:32:18.962Z,1.50
2022-10-09T21:34:45.923Z,1.52
2022-10-09T21:37:21.278Z,1.60
2022-10-09T21:39:48.659Z,2.28
2022-10-09T21:42:15.262Z,1.60
2022-10-09T21:44:41.893Z,1.58
2022-10-09T21:47:16.192Z,1.45
2022-10-09T21:49:42.837Z,1.50
2022-10-09T21:52:10.629Z,1.38
2022-10-09T21:54:37.259Z,1.30
2022-10-09T21:57:03.934Z,1.60
2022-10-09T21:59:30.592Z,1.55
2022-10-09T22:01:57.197Z,1.42
2022-10-09T22:04:23.951Z,1.42
2022-10-09T22:06:50.533Z,1.30
2022-10-09T22:09:17.215Z,1.45
2022-10-09T22:11:44.848Z,1.50
2022-10-09T22:14:11.614Z,1.30
2022-10-09T22:16:38.270Z,1.38
2022-10-09T22:19:04.890Z,1.23
2022-10-09T22:21:31.891Z,1.50
2022-10-09T22:24:00.101Z,1.23
2022-10-09T22:26:26.949Z,1.38
2022-10-09T22:28:53.587Z,1.50
2022-10-09T22:31:22.565Z,1.25
2022-10-09T22:33:53.819Z,1.50
2022-10-09T22:36:22.002Z,1.50
2022-10-09T22:38:48.627Z,1.42
2022-10-09T22:41:20.854Z,1.48
2022-10-09T22:43:49.468Z,1.75
2022-10-09T22:46:19.185Z,1.60
2022-10-09T22:48:46.338Z,1.70
2022-10-09T22:51:15.157Z,1.95
2022-10-09T22:53:43.090Z,1.52
2022-10-09T22:56:19.078Z,1.73
2022-10-09T22:58:47.425Z,1.40
2022-10-09T23:01:30.312Z,1.67
2022-10-09T23:03:58.604Z,1.52
2022-10-09T23:06:25.331Z,1.65
2022-10-09T23:08:52.300Z,1.60
2022-10-09T23:11:20.245Z,2.10
2022-10-09T23:13:47.695Z,1.55
2022-10-09T23:16:15.076Z,1.70
2022-10-09T23:18:42.387Z,1.52
2022-10-09T23:21:12.273Z,1.42
2022-10-09T23:23:39.405Z,1.70
2022-10-09T23:26:08.012Z,1.50
2022-10-09T23:28:35.438Z,1.77
2022-10-09T23:31:20.736Z,1.42
2022-10-09T23:33:47.858Z,1.70
2022-10-09T23:36:17.816Z,1.55
2022-10-09T23:38:45.082Z,1.58
2022-10-09T23:41:17.278Z,1.77
2022-10-09T23:43:45.187Z,1.25
2022-10-09T23:46:17.989Z,1.60
2022-10-09T23:48:45.236Z,1.55
2022-10-09T23:51:13.937Z,1.63
2022-10-09T23:53:41.570Z,1.38
2022-10-09T23:56:25.075Z,1.55
2022-10-09T23:58:52.520Z,1.55
